Time;durP1;ratioP1;P1;durP2;ratioP2;P2;SDS_P1;SDS_P2;PMS_P1;PMS_P2;Temp;Humidity;BMP_temperature;BMP_pressure;BME280_temperature;BME280_humidity;BME280_pressure;Samples;Min_cycle;Max_cycle;Signal;HPM_P1;HPM_P2
2023/05/13 00:00:43;;;;;;;17.12;8.10;;;;;;;7.80;50.69;100633.87;1674305;84;21583;-62
2023/05/13 00:03:11;;;;;;;;;;;;;;;7.79;50.99;100632.17;1673017;84;21497;-62
2023/05/13 00:05:40;;;;;;;20.83;7.50;;;;;;;7.74;51.41;100630.11;1675937;83;20463;-62
2023/05/13 00:08:12;;;;;;;21.52;9.95;;;;;;;7.70;50.81;100628.90;1666890;84;21061;-63
2023/05/13 00:10:35;;;;;;;14.87;8.18;;;;;;;7.66;50.94;100625.97;1667469;84;21157;-64
2023/05/13 00:13:03;;;;;;;19.50;8.03;;;;;;;7.61;50.92;100626.05;1672324;84;21024;-62
2023/05/13 00:15:34;;;;;;;34.98;11.35;;;;;;;7.59;50.98;100622.66;1655140;84;21524;-63
2023/05/13 00:17:59;;;;;;;30.97;11.75;;;;;;;7.57;51.25;100623.11;1674096;84;21025;-62
2023/05/13 00:20:26;;;;;;;44.25;12.25;;;;;;;7.54;51.27;100621.88;1670469;84;21025;-62
2023/05/13 00:22:52;;;;;;;40.25;12.88;;;;;;;7.52;51.43;100622.34;1669705;84;20997;-61
2023/05/13 00:25:21;;;;;;;30.35;12.15;;;;;;;7.53;51.68;100624.05;1671468;84;21058;-63
2023/05/13 00:27:47;;;;;;;43.15;12.93;;;;;;;7.52;51.50;100619.75;1654304;84;21093;-63
2023/05/13 00:30:18;;;;;;;40.98;13.80;;;;;;;7.46;51.42;100622.48;1656406;84;21100;-62
2023/05/13 00:32:51;;;;;;;37.05;12.75;;;;;;;7.40;51.54;100626.91;1665822;84;21064;-62
2023/05/13 00:35:17;;;;;;;16.65;7.80;;;;;;;7.44;51.92;100626.84;1674223;84;21060;-62
2023/05/13 00:37:43;;;;;;;18.32;7.83;;;;;;;7.49;51.90;100621.11;1670701;84;21064;-62
2023/05/13 00:40:17;;;;;;;16.62;6.80;;;;;;;7.48;52.06;100623.28;1672983;84;21024;-61
2023/05/13 00:42:43;;;;;;;15.53;6.65;;;;;;;7.43;52.16;100619.95;1673756;84;21029;-63
2023/05/13 00:45:10;;;;;;;14.73;6.65;;;;;;;7.38;52.31;100620.02;1674574;84;21041;-62
2023/05/13 00:47:37;;;;;;;14.78;6.58;;;;;;;7.34;52.34;100625.73;1675507;84;21083;-62
2023/05/13 00:50:13;;;;;;;10.70;7.15;;;;;;;7.31;52.44;100621.90;1660788;84;21108;-63
2023/05/13 00:52:43;;;;;;;12.05;5.85;;;;;;;7.28;52.44;100625.86;1649723;85;21217;-62
2023/05/13 00:55:10;;;;;;;10.20;6.08;;;;;;;7.23;52.58;100623.78;1642731;86;21035;-62
2023/05/13 00:57:40;;;;;;;8.35;5.47;;;;;;;7.17;52.78;100627.80;1640906;86;20979;-64
2023/05/13 01:00:09;;;;;;;5.28;4.33;;;;;;;7.14;52.77;100622.64;1644406;86;21589;-62
2023/05/13 01:02:54;;;;;;;8.13;6.45;;;;;;;7.14;53.02;100625.23;1643673;86;21151;-62
2023/05/13 01:05:36;;;;;;;9.53;5.65;;;;;;;7.18;52.93;100628.20;1646070;86;21643;-62
2023/05/13 01:08:06;;;;;;;9.68;6.03;;;;;;;7.20;53.28;100631.64;1641851;86;21648;-62
2023/05/13 01:10:56;;;;;;;11.95;5.17;;;;;;;7.15;53.24;100630.86;1647587;86;21039;-62
2023/05/13 01:13:25;;;;;;;11.60;5.30;;;;;;;7.10;53.25;100628.78;1645653;86;21658;-62
2023/05/13 01:16:00;;;;;;;13.40;5.65;;;;;;;7.06;53.34;100629.30;1628893;86;21043;-62
2023/05/13 01:18:33;;;;;;;10.60;6.65;;;;;;;7.04;53.43;100635.40;1642372;86;21558;-62
2023/05/13 01:21:01;;;;;;;20.77;9.28;;;;;;;6.95;53.47;100628.63;1645941;85;21095;-62
2023/05/13 01:23:29;;;;;;;23.45;8.75;;;;;;;6.91;53.54;100630.41;1644435;86;21004;-61
2023/05/13 01:25:56;;;;;;;43.58;11.03;;;;;;;6.94;53.79;100632.94;1646291;86;21079;-62
2023/05/13 01:28:22;;;;;;;32.67;9.75;;;;;;;6.95;53.68;100630.78;1649099;86;21039;-62
2023/05/13 01:30:49;;;;;;;39.27;10.55;;;;;;;6.91;53.66;100626.51;1646004;86;21043;-62
2023/05/13 01:33:17;;;;;;;41.77;11.28;;;;;;;6.88;53.78;100629.16;1646163;86;21586;-62
2023/05/13 01:35:46;;;;;;;36.80;12.75;;;;;;;6.87;54.17;100630.51;1644568;86;21114;-63
2023/05/13 01:38:14;;;;;;;50.88;13.83;;;;;;;6.91;54.34;100633.00;1644750;85;21189;-61
2023/05/13 01:40:41;;;;;;;34.08;11.95;;;;;;;6.91;54.26;100637.34;1642187;85;21091;-61
2023/05/13 01:43:08;;;;;;;35.50;11.53;;;;;;;6.92;54.36;100639.08;1646409;86;21102;-62
2023/05/13 01:45:34;;;;;;;28.73;11.03;;;;;;;6.93;54.57;100640.33;1644961;86;21063;-62
2023/05/13 01:48:00;;;;;;;33.83;10.72;;;;;;;6.92;54.50;100644.27;1645611;86;21012;-62
2023/05/13 01:50:26;;;;;;;32.90;9.70;;;;;;;6.89;54.48;100641.28;1643530;86;21047;-62
2023/05/13 01:52:54;;;;;;;23.80;9.75;;;;;;;6.86;54.62;100649.55;1657153;84;21021;-61
2023/05/13 01:55:21;;;;;;;18.65;8.93;;;;;;;6.88;54.74;100640.84;1676934;84;21035;-61
2023/05/13 01:57:47;;;;;;;20.90;8.38;;;;;;;6.91;54.79;100642.53;1672050;83;21071;-62
2023/05/13 02:00:15;;;;;;;35.05;9.93;;;;;;;6.90;54.77;100636.49;1677753;84;22366;-62
2023/05/13 02:02:41;;;;;;;;;;;;;;;6.90;55.02;100641.69;1676618;83;20977;-62
2023/05/13 02:05:08;;;;;;;18.30;8.93;;;;;;;6.89;55.29;100643.87;1672903;84;20196;-62
2023/05/13 02:07:39;;;;;;;15.20;8.45;;;;;;;6.86;54.97;100647.83;1676872;84;21044;-62
2023/05/13 02:10:03;;;;;;;27.00;10.13;;;;;;;6.79;54.96;100648.80;1673609;84;20994;-62
2023/05/13 02:12:29;;;;;;;16.67;9.20;;;;;;;6.77;55.02;100653.60;1678012;84;21006;-61
2023/05/13 02:14:55;;;;;;;20.82;8.78;;;;;;;6.74;55.15;100654.50;1675963;84;20977;-63
2023/05/13 02:17:23;;;;;;;19.75;6.53;;;;;;;6.73;55.30;100654.10;1675850;84;20981;-62
2023/05/13 02:19:51;;;;;;;26.57;7.50;;;;;;;6.74;55.44;100657.10;1674234;84;21070;-62
2023/05/13 02:22:18;;;;;;;11.90;5.72;;;;;;;6.71;55.32;100646.77;1678748;84;21575;-62
2023/05/13 02:24:44;;;;;;;11.63;5.75;;;;;;;6.70;55.46;100648.97;1679213;84;21559;-62
2023/05/13 02:27:11;;;;;;;19.30;6.80;;;;;;;6.71;55.46;100649.37;1671289;84;20988;-62
2023/05/13 02:29:38;;;;;;;14.05;6.53;;;;;;;6.70;55.57;100654.16;1676847;83;21083;-62
2023/05/13 02:32:05;;;;;;;20.90;7.15;;;;;;;6.67;55.70;100654.21;1678465;84;21060;-62
2023/05/13 02:34:31;;;;;;;12.43;5.20;;;;;;;6.65;55.61;100655.52;1678358;84;21111;-62
2023/05/13 02:36:58;;;;;;;18.00;6.70;;;;;;;6.66;55.70;100649.88;1677799;84;21087;-62
2023/05/13 02:39:25;;;;;;;25.92;6.75;;;;;;;6.64;55.68;100652.97;1671848;84;21075;-62
2023/05/13 02:41:52;;;;;;;12.05;4.90;;;;;;;6.61;55.76;100654.28;1674768;84;21095;-61
2023/05/13 02:44:18;;;;;;;42.45;9.90;;;;;;;6.60;55.79;100652.58;1674086;83;20997;-62
2023/05/13 02:46:46;;;;;;;37.98;9.90;;;;;;;6.57;55.86;100650.03;1675796;84;21012;-62
2023/05/13 02:49:12;;;;;;;48.23;10.08;;;;;;;6.57;55.94;100657.82;1679579;84;21526;-62
2023/05/13 02:51:41;;;;;;;46.53;10.65;;;;;;;6.58;56.08;100662.12;1675196;83;20993;-63
2023/05/13 02:54:09;;;;;;;31.07;9.78;;;;;;;6.63;56.17;100657.72;1674144;84;21590;-62
2023/05/13 02:56:36;;;;;;;19.80;9.43;;;;;;;6.67;56.29;100662.00;1673541;84;22335;-62
2023/05/13 02:59:03;;;;;;;24.43;9.78;;;;;;;6.69;56.38;100657.61;1675380;83;21057;-62
2023/05/13 03:01:32;;;;;;;26.70;9.23;;;;;;;6.71;56.53;100658.45;1676653;84;20993;-62
2023/05/13 03:04:00;;;;;;;36.17;10.18;;;;;;;6.71;56.36;100662.34;1672409;84;21596;-62
2023/05/13 03:06:26;;;;;;;33.15;10.13;;;;;;;6.73;56.51;100664.48;1671285;84;21056;-64
2023/05/13 03:08:52;;;;;;;21.52;8.55;;;;;;;6.72;56.49;100660.16;1675349;84;21023;-63
2023/05/13 03:11:18;;;;;;;24.27;7.92;;;;;;;6.72;56.61;100665.34;1674959;84;21037;-61
2023/05/13 03:13:44;;;;;;;18.00;8.20;;;;;;;6.72;56.56;100660.16;1670878;84;21662;-61
2023/05/13 03:16:17;;;;;;;18.55;9.15;;;;;;;6.70;56.67;100663.23;1673206;84;21786;-61
2023/05/13 03:18:41;;;;;;;22.85;8.30;;;;;;;6.68;56.68;100661.09;1667349;84;21614;-62
2023/05/13 03:21:07;;;;;;;13.85;7.92;;;;;;;6.73;56.97;100661.89;1674405;84;20993;-64
2023/05/13 03:23:34;;;;;;;30.75;9.38;;;;;;;6.81;57.17;100657.42;1671334;84;21562;-61
2023/05/13 03:26:01;;;;;;;38.98;9.50;;;;;;;6.87;57.05;100656.02;1677575;84;21041;-62
2023/05/13 03:28:27;;;;;;;45.73;9.65;;;;;;;6.92;57.00;100655.50;1675283;83;21507;-62
2023/05/13 03:30:55;;;;;;;53.20;10.32;;;;;;;7.01;57.04;100661.42;1681189;84;21064;-61
2023/05/13 03:33:27;;;;;;;33.02;9.38;;;;;;;7.08;57.01;100660.41;1670537;83;21083;-62
2023/05/13 03:35:50;;;;;;;41.63;10.15;;;;;;;7.15;57.06;100655.53;1672351;84;21032;-62
2023/05/13 03:38:16;;;;;;;43.55;10.43;;;;;;;7.24;57.08;100661.85;1674202;84;21115;-62
2023/05/13 03:40:42;;;;;;;48.20;9.60;;;;;;;7.33;57.14;100659.07;1670179;84;21017;-62
2023/05/13 03:43:08;;;;;;;32.03;8.63;;;;;;;7.49;57.15;100663.98;1672911;84;21108;-62
2023/05/13 03:45:39;;;;;;;27.67;7.78;;;;;;;7.56;57.13;100657.77;1669172;84;21056;-62
2023/05/13 03:48:04;;;;;;;20.55;6.78;;;;;;;7.62;57.29;100655.08;1670219;84;21041;-62
2023/05/13 03:50:30;;;;;;;26.12;8.50;;;;;;;7.77;57.28;100658.64;1674285;84;21048;-62
2023/05/13 03:52:56;;;;;;;26.75;8.13;;;;;;;7.94;57.39;100658.73;1673196;84;20985;-62
2023/05/13 03:55:23;;;;;;;18.30;6.25;;;;;;;8.05;57.26;100664.56;1641402;86;21038;-62
2023/05/13 03:57:51;;;;;;;25.90;7.12;;;;;;;8.16;57.29;100661.28;1635534;86;21593;-62
2023/05/13 04:00:17;;;;;;;24.27;8.83;;;;;;;8.30;57.25;100659.22;1640895;86;21063;-62
2023/05/13 04:02:43;;;;;;;31.87;8.60;;;;;;;8.50;57.46;100663.14;1638037;86;21154;-62
2023/05/13 04:05:10;;;;;;;32.95;8.58;;;;;;;8.61;57.69;100659.83;1645278;86;21055;-62
2023/05/13 04:07:40;;;;;;;42.08;8.85;;;;;;;8.81;57.69;100663.70;1642118;86;21026;-61
2023/05/13 04:10:09;;;;;;;35.10;9.45;;;;;;;9.02;57.66;100670.09;1644232;86;21553;-62
2023/05/13 04:12:36;;;;;;;30.05;8.40;;;;;;;9.16;57.74;100662.34;1646782;86;21023;-62
2023/05/13 04:15:04;;;;;;;30.55;8.20;;;;;;;9.34;57.84;100669.27;1640816;86;21471;-62
2023/05/13 04:17:33;;;;;;;37.00;10.23;;;;;;;9.52;57.96;100667.47;1641494;86;21058;-61
2023/05/13 04:19:59;;;;;;;32.90;8.55;;;;;;;9.75;57.98;100664.66;1642680;86;21106;-62
2023/05/13 04:22:25;;;;;;;33.73;9.53;;;;;;;10.02;58.30;100666.43;1641265;86;21043;-62
2023/05/13 04:24:56;;;;;;;27.70;8.30;;;;;;;10.38;58.43;100668.86;1639438;86;21031;-62
2023/05/13 04:27:19;;;;;;;37.38;9.08;;;;;;;10.76;58.39;100670.70;1637850;86;21487;-64
2023/05/13 04:29:50;;;;;;;29.92;8.55;;;;;;;11.06;58.12;100669.25;1641515;85;21027;-62
2023/05/13 04:32:20;;;;;;;32.35;7.20;;;;;;;11.37;58.27;100663.81;1638783;86;21054;-62
2023/05/13 04:34:45;;;;;;;33.20;6.72;;;;;;;11.66;58.21;100670.63;1644205;86;20999;-63
2023/05/13 04:37:11;;;;;;;30.70;7.25;;;;;;;11.89;58.02;100671.57;1641842;86;21060;-62
2023/05/13 04:39:38;;;;;;;27.87;7.90;;;;;;;12.06;58.08;100675.70;1641674;86;20996;-63
2023/05/13 04:42:06;;;;;;;24.17;5.93;;;;;;;12.27;58.36;100662.26;1642635;86;21114;-62
2023/05/13 04:44:33;;;;;;;24.57;6.40;;;;;;;12.52;58.37;100672.61;1639663;86;21060;-62
2023/05/13 04:47:00;;;;;;;31.20;7.47;;;;;;;12.76;58.42;100670.74;1641177;86;21094;-62
2023/05/13 04:49:26;;;;;;;21.37;5.40;;;;;;;12.96;58.37;100672.53;1640276;86;21558;-62
2023/05/13 04:51:53;;;;;;;24.43;6.47;;;;;;;13.13;58.33;100668.73;1642701;86;21117;-62
2023/05/13 04:54:19;;;;;;;24.37;6.62;;;;;;;13.32;58.32;100671.92;1660567;84;21067;-62
2023/05/13 04:56:46;;;;;;;18.23;5.50;;;;;;;13.49;58.20;100670.72;1676589;83;21054;-62
2023/05/13 04:59:12;;;;;;;26.48;6.67;;;;;;;13.66;58.02;100677.84;1676965;84;21072;-62
2023/05/13 05:01:38;;;;;;;17.70;5.03;;;;;;;13.81;58.01;100667.13;1676073;84;21559;-61
2023/05/13 05:04:05;;;;;;;16.25;4.62;;;;;;;13.98;57.87;100675.54;1673420;84;21071;-63
2023/05/13 05:06:32;;;;;;;20.10;5.53;;;;;;;14.10;57.65;100669.23;1676449;84;21052;-62
2023/05/13 05:08:59;;;;;;;19.07;5.83;;;;;;;14.26;57.77;100669.84;1673287;84;21104;-63
2023/05/13 05:11:25;;;;;;;21.27;5.80;;;;;;;14.43;57.83;100665.95;1674243;84;20970;-63
2023/05/13 05:13:51;;;;;;;23.50;5.70;;;;;;;14.60;57.69;100672.20;1681595;84;21012;-63
2023/05/13 05:16:17;;;;;;;16.90;5.55;;;;;;;14.76;57.82;100670.52;1676114;84;21191;-63
2023/05/13 05:18:43;;;;;;;11.28;3.70;;;;;;;14.94;57.62;100664.33;1674279;84;21059;-63
2023/05/13 05:21:16;;;;;;;15.70;3.80;;;;;;;15.12;57.42;100672.20;1673509;84;21091;-62
2023/05/13 05:23:42;;;;;;;24.32;4.83;;;;;;;15.30;57.31;100670.43;1678348;84;21088;-64
2023/05/13 05:26:09;;;;;;;13.22;3.65;;;;;;;15.51;57.38;100671.08;1662133;84;21068;-63
2023/05/13 05:28:38;;;;;;;12.33;3.58;;;;;;;15.75;57.16;100671.60;1675671;84;21009;-65
2023/05/13 05:31:05;;;;;;;10.70;3.50;;;;;;;15.96;57.17;100666.94;1678592;84;21000;-63
2023/05/13 05:33:32;;;;;;;7.33;2.85;;;;;;;16.17;56.77;100671.04;1677726;83;21044;-63
2023/05/13 05:35:58;;;;;;;4.58;2.50;;;;;;;16.38;56.46;100678.67;1676264;84;21068;-63
2023/05/13 05:38:24;;;;;;;7.83;2.72;;;;;;;16.53;56.06;100677.83;1680032;84;21090;-63
2023/05/13 05:40:51;;;;;;;8.10;3.08;;;;;;;16.68;55.97;100673.45;1675004;84;21105;-62
2023/05/13 05:43:17;;;;;;;6.55;1.90;;;;;;;16.88;55.28;100678.92;1680551;84;21028;-62
2023/05/13 05:45:45;;;;;;;6.45;2.17;;;;;;;17.12;54.03;100670.89;1676767;84;21034;-62
2023/05/13 05:48:11;;;;;;;4.28;2.02;;;;;;;17.34;53.64;100667.81;1674375;84;21063;-60
2023/05/13 05:50:37;;;;;;;3.47;1.98;;;;;;;17.56;52.14;100666.48;1677163;84;21036;-58
2023/05/13 05:53:05;;;;;;;5.72;2.30;;;;;;;17.77;51.53;100670.94;1674374;84;21537;-58
2023/05/13 05:55:32;;;;;;;6.33;2.95;;;;;;;17.95;50.77;100669.80;1677347;84;21021;-58
2023/05/13 05:58:04;;;;;;;8.95;2.33;;;;;;;18.13;49.92;100670.92;1677117;84;21001;-58
2023/05/13 06:00:29;;;;;;;8.50;2.37;;;;;;;18.26;49.04;100669.17;1679993;84;21060;-59
2023/05/13 06:02:57;;;;;;;4.35;2.37;;;;;;;18.42;49.95;100670.36;1679325;83;21072;-59
2023/05/13 06:05:24;;;;;;;4.33;1.80;;;;;;;18.53;48.18;100668.70;1683204;84;21116;-63
2023/05/13 06:07:50;;;;;;;3.98;1.92;;;;;;;18.69;47.54;100667.72;1675072;84;21021;-59
2023/05/13 06:10:17;;;;;;;6.95;1.80;;;;;;;18.82;45.90;100671.28;1675583;84;21032;-59
2023/05/13 06:12:50;;;;;;;2.90;2.20;;;;;;;18.98;47.25;100657.37;1674168;84;21152;-58
2023/05/13 06:15:13;;;;;;;5.75;2.12;;;;;;;19.11;46.48;100667.98;1659658;84;21103;-58
2023/05/13 06:17:41;;;;;;;10.78;2.00;;;;;;;19.22;46.06;100669.91;1658163;84;21306;-61
2023/05/13 06:20:09;;;;;;;5.25;1.75;;;;;;;19.36;45.39;100661.86;1682815;83;21127;-61
2023/05/13 06:22:35;;;;;;;9.00;1.90;;;;;;;19.59;45.54;100670.01;1675606;84;21127;-61
2023/05/13 06:25:01;;;;;;;3.60;1.60;;;;;;;19.78;44.61;100662.50;1670708;84;21076;-60
2023/05/13 06:27:27;;;;;;;3.57;1.93;;;;;;;19.96;44.63;100662.14;1672409;84;21069;-61
2023/05/13 06:29:54;;;;;;;2.20;1.50;;;;;;;20.13;44.43;100659.11;1677172;84;21362;-61
2023/05/13 06:32:20;;;;;;;3.47;1.60;;;;;;;20.37;44.63;100650.34;1677400;84;21429;-61
2023/05/13 06:34:47;;;;;;;7.03;2.10;;;;;;;20.43;44.07;100655.19;1676229;84;21079;-61
2023/05/13 06:37:14;;;;;;;3.67;2.10;;;;;;;20.55;42.79;100656.96;1672787;84;21079;-61
2023/05/13 06:39:41;;;;;;;7.35;1.95;;;;;;;20.96;43.81;100653.02;1673667;84;21028;-61
2023/05/13 06:42:09;;;;;;;3.53;2.10;;;;;;;21.29;43.06;100659.38;1667124;84;21051;-61
2023/05/13 06:44:35;;;;;;;7.03;1.87;;;;;;;21.81;41.75;100655.30;1681276;84;21038;-60
2023/05/13 06:47:03;;;;;;;5.58;1.98;;;;;;;22.27;40.83;100656.96;1672993;84;21052;-60
2023/05/13 06:49:32;;;;;;;4.47;2.00;;;;;;;22.77;41.36;100658.59;1683537;84;21963;-60
2023/05/13 06:51:59;;;;;;;6.20;1.92;;;;;;;23.18;40.45;100658.26;1681677;84;21104;-62
2023/05/13 06:54:26;;;;;;;12.63;2.70;;;;;;;23.75;39.19;100660.03;1677922;84;21061;-60
2023/05/13 06:56:54;;;;;;;3.98;1.77;;;;;;;24.37;38.58;100656.73;1674050;84;21547;-60
2023/05/13 06:59:21;;;;;;;4.05;1.87;;;;;;;24.91;39.32;100656.72;1674280;84;21024;-60
2023/05/13 07:01:48;;;;;;;2.83;1.27;;;;;;;25.10;38.68;100655.35;1680811;84;21016;-60
2023/05/13 07:04:14;;;;;;;7.13;1.90;;;;;;;25.87;39.21;100653.44;1677284;84;21020;-60
2023/05/13 07:06:42;;;;;;;12.45;2.80;;;;;;;26.58;38.27;100649.18;1680617;84;21548;-60
2023/05/13 07:09:08;;;;;;;16.55;2.33;;;;;;;27.20;37.11;100650.05;1674395;84;21045;-60
2023/05/13 07:11:36;;;;;;;7.10;1.70;;;;;;;27.78;35.45;100660.05;1675508;84;21060;-61
2023/05/13 07:14:02;;;;;;;6.60;1.55;;;;;;;28.05;34.35;100650.95;1674975;84;21017;-61
2023/05/13 07:16:28;;;;;;;3.70;1.75;;;;;;;28.38;34.16;100655.58;1663293;84;20965;-60
2023/05/13 07:18:57;;;;;;;8.00;1.87;;;;;;;28.95;33.48;100654.27;1675765;84;21005;-62
2023/05/13 07:21:22;;;;;;;7.22;2.20;;;;;;;29.30;32.11;100657.63;1675043;84;21068;-60
2023/05/13 07:23:49;;;;;;;3.72;1.70;;;;;;;30.21;32.37;100644.13;1675926;84;21555;-60
2023/05/13 07:26:15;;;;;;;21.07;3.08;;;;;;;30.64;29.41;100639.12;1665349;84;21067;-61
2023/05/13 07:28:42;;;;;;;3.08;1.42;;;;;;;31.02;30.89;100636.46;1673886;84;21084;-63
2023/05/13 07:31:09;;;;;;;6.87;1.70;;;;;;;31.43;29.87;100638.25;1673929;84;21586;-61
2023/05/13 07:33:37;;;;;;;5.00;1.90;;;;;;;31.08;28.65;100641.11;1673686;84;21105;-61
2023/05/13 07:36:05;;;;;;;17.92;2.30;;;;;;;30.96;28.92;100638.87;1673758;83;21184;-60
2023/05/13 07:38:31;;;;;;;5.22;1.82;;;;;;;31.51;28.89;100638.64;1674186;84;21060;-58
2023/05/13 07:40:59;;;;;;;8.78;1.67;;;;;;;32.16;28.22;100631.06;1672741;84;21169;-59
2023/05/13 07:43:28;;;;;;;7.25;1.87;;;;;;;33.24;26.61;100640.44;1673709;84;21009;-58
2023/05/13 07:45:55;;;;;;;6.05;2.10;;;;;;;33.99;26.63;100627.37;1673056;84;21029;-59
2023/05/13 07:48:26;;;;;;;3.67;1.67;;;;;;;34.71;26.26;100629.11;1669260;84;21104;-59
2023/05/13 07:50:53;;;;;;;8.28;1.92;;;;;;;34.96;25.04;100630.14;1665267;84;21009;-59
2023/05/13 07:53:20;;;;;;;6.35;1.82;;;;;;;34.66;23.97;100626.19;1670294;84;21096;-60
2023/05/13 07:55:46;;;;;;;6.53;1.92;;;;;;;34.60;24.29;100631.92;1672485;84;21543;-59
2023/05/13 07:58:13;;;;;;;6.22;1.72;;;;;;;34.71;23.89;100631.83;1668284;84;20941;-58
2023/05/13 08:00:39;;;;;;;4.72;1.60;;;;;;;35.19;23.44;100628.88;1670888;84;21036;-58
2023/05/13 08:03:05;;;;;;;7.55;2.30;;;;;;;34.39;21.37;100607.15;1678479;83;21820;-59
2023/05/13 08:05:32;;;;;;;7.50;2.02;;;;;;;34.31;21.84;100623.61;1676244;84;21497;-59
2023/05/13 08:07:58;;;;;;;5.60;2.10;;;;;;;34.64;19.90;100637.76;1680040;84;21088;-59
2023/05/13 08:10:24;;;;;;;10.85;2.00;;;;;;;34.64;19.90;100637.76;1676784;83;20980;-59
2023/05/13 08:12:56;;;;;;;7.50;1.70;;;;;;;34.56;20.29;100609.48;1678018;84;21646;-60
2023/05/13 08:15:20;;;;;;;5.17;2.15;;;;;;;34.95;19.61;100623.05;1672658;84;21139;-59
2023/05/13 08:17:48;;;;;;;3.98;1.70;;;;;;;34.95;19.61;100623.05;1669332;84;21060;-59
2023/05/13 08:20:14;;;;;;;13.72;2.05;;;;;;;35.09;18.94;100625.75;1669130;84;21550;-58
2023/05/13 08:22:42;;;;;;;3.95;1.77;;;;;;;34.98;18.46;100622.63;1678156;83;21548;-59
2023/05/13 08:25:14;;;;;;;7.37;1.70;;;;;;;35.39;18.54;100632.36;1672851;83;21031;-59
2023/05/13 08:27:37;;;;;;;7.10;1.67;;;;;;;35.00;16.64;100622.40;1671759;84;20999;-59
2023/05/13 08:30:05;;;;;;;9.20;1.92;;;;;;;34.72;17.74;100620.75;1676436;84;20986;-60
2023/05/13 08:32:31;;;;;;;6.58;1.82;;;;;;;34.31;16.28;100627.68;1674185;83;21052;-58
2023/05/13 08:34:58;;;;;;;5.08;1.98;;;;;;;34.31;16.28;100627.68;1673819;84;21045;-60
2023/05/13 08:37:24;;;;;;;9.83;2.08;;;;;;;34.58;17.08;100629.94;1673006;83;21501;-58
2023/05/13 08:39:51;;;;;;;7.92;2.10;;;;;;;34.37;17.29;100622.81;1670843;84;21087;-59
2023/05/13 08:42:21;;;;;;;5.33;1.75;;;;;;;34.47;17.47;100621.86;1675802;84;21050;-60
2023/05/13 08:44:50;;;;;;;8.58;1.52;;;;;;;34.91;16.50;100620.43;1673053;84;21052;-59
2023/05/13 08:47:25;;;;;;;6.83;2.20;;;;;;;35.27;15.54;100596.07;1671086;83;21068;-59
2023/05/13 08:49:53;;;;;;;3.92;1.50;;;;;;;35.42;16.43;100622.42;1672500;84;21043;-61
2023/05/13 08:52:21;;;;;;;6.12;1.60;;;;;;;35.33;12.78;100629.67;1671239;84;21032;-61
2023/05/13 08:54:49;;;;;;;7.80;1.80;;;;;;;35.04;15.35;100618.73;1670168;83;21055;-62
2023/05/13 08:57:16;;;;;;;10.23;1.60;;;;;;;35.01;15.12;100615.09;1645508;85;21078;-61
2023/05/13 08:59:42;;;;;;;6.67;1.77;;;;;;;35.12;15.43;100617.19;1653457;85;21019;-60
2023/05/13 09:02:09;;;;;;;6.33;1.60;;;;;;;35.01;15.40;100607.81;1646329;85;21050;-61
2023/05/13 09:04:38;;;;;;;32.05;4.37;;;;;;;35.22;14.71;100609.45;1645974;85;21047;-60
2023/05/13 09:07:04;;;;;;;5.08;1.70;;;;;;;35.53;15.12;100613.31;1648709;85;21102;-61
2023/05/13 09:09:31;;;;;;;4.78;1.75;;;;;;;35.77;14.59;100609.90;1645349;85;21023;-60
2023/05/13 09:11:57;;;;;;;5.65;1.55;;;;;;;35.83;14.64;100606.31;1650977;85;20988;-60
2023/05/13 09:14:31;;;;;;;2.72;1.70;;;;;;;35.59;14.66;100609.77;1648437;85;21086;-61
2023/05/13 09:16:59;;;;;;;3.98;1.50;;;;;;;35.63;14.95;100617.28;1654303;85;21118;-61
2023/05/13 09:19:26;;;;;;;5.33;1.50;;;;;;;35.22;14.19;100614.05;1650231;85;21016;-61
2023/05/13 09:21:53;;;;;;;3.02;1.52;;;;;;;35.36;14.54;100616.50;1652118;85;21471;-61
2023/05/13 09:24:22;;;;;;;5.12;1.25;;;;;;;34.88;14.11;100608.64;1650467;85;21618;-61
2023/05/13 09:26:51;;;;;;;5.92;1.55;;;;;;;34.61;14.17;100602.39;1648867;85;21010;-62
2023/05/13 09:29:25;;;;;;;4.97;1.67;;;;;;;34.74;14.45;100607.83;1644040;85;21023;-61
2023/05/13 09:31:54;;;;;;;2.45;1.42;;;;;;;34.74;14.45;100607.83;1654894;85;20971;-60
2023/05/13 09:34:33;;;;;;;5.22;1.32;;;;;;;34.46;13.75;100620.20;1648455;85;21030;-61
2023/05/13 09:37:04;;;;;;;2.80;1.75;;;;;;;34.99;13.82;100593.61;1648244;85;21577;-61
2023/05/13 09:39:32;;;;;;;4.17;1.52;;;;;;;35.79;13.85;100610.50;1647459;85;21027;-60
2023/05/13 09:42:03;;;;;;;7.00;1.80;;;;;;;36.07;13.72;100601.17;1653406;85;21038;-61
2023/05/13 09:44:29;;;;;;;3.60;1.57;;;;;;;35.69;13.46;100603.89;1645037;85;21007;-60
2023/05/13 09:46:55;;;;;;;5.75;1.62;;;;;;;35.27;13.85;100600.67;1602312;88;21066;-60
2023/05/13 09:49:28;;;;;;;9.15;1.70;;;;;;;35.49;13.61;100606.63;1644181;85;21050;-60
2023/05/13 09:51:54;;;;;;;5.05;1.57;;;;;;;35.54;12.90;100606.83;1651640;85;20995;-61
2023/05/13 09:54:20;;;;;;;5.35;1.45;;;;;;;35.02;12.99;100603.20;1649360;85;20944;-60
2023/05/13 09:56:47;;;;;;;8.20;1.70;;;;;;;35.52;13.75;100584.50;1665971;84;21021;-60
2023/05/13 09:59:15;;;;;;;3.58;1.35;;;;;;;36.57;13.65;100586.30;1676275;84;21048;-61
2023/05/13 10:01:45;;;;;;;5.72;1.40;;;;;;;37.70;13.68;100596.52;1681343;84;21031;-61
2023/05/13 10:04:12;;;;;;;4.65;1.55;;;;;;;37.36;13.18;100587.41;1676403;84;21718;-60
2023/05/13 10:06:38;;;;;;;4.67;1.50;;;;;;;36.41;12.64;100588.17;1677998;84;20973;-61
2023/05/13 10:09:08;;;;;;;5.33;1.52;;;;;;;36.55;13.11;100579.41;1668054;84;20973;-61
2023/05/13 10:11:35;;;;;;;8.55;1.82;;;;;;;35.65;13.07;100576.30;1674411;84;21009;-61
2023/05/13 10:14:06;;;;;;;9.78;1.37;;;;;;;35.20;13.30;100583.86;1676829;84;20985;-61
2023/05/13 10:16:33;;;;;;;4.50;1.35;;;;;;;35.25;13.06;100581.88;1673532;84;21488;-59
2023/05/13 10:19:00;;;;;;;5.10;1.60;;;;;;;35.17;13.08;100584.81;1676932;84;21033;-58
2023/05/13 10:21:26;;;;;;;4.62;1.37;;;;;;;35.26;13.13;100583.52;1676083;84;21039;-59
2023/05/13 10:23:55;;;;;;;3.55;1.62;;;;;;;35.00;13.10;100573.55;1673850;83;21127;-59
2023/05/13 10:26:22;;;;;;;3.12;1.40;;;;;;;34.38;13.24;100586.52;1674300;84;21143;-59
2023/05/13 10:28:50;;;;;;;7.03;1.50;;;;;;;34.51;13.31;100585.70;1679302;84;21255;-59
2023/05/13 10:31:16;;;;;;;3.12;1.60;;;;;;;34.74;13.27;100577.98;1678496;84;21012;-59
2023/05/13 10:33:44;;;;;;;5.75;1.40;;;;;;;35.36;13.41;100568.98;1677427;84;21001;-59
2023/05/13 10:36:24;;;;;;;4.62;1.72;;;;;;;36.33;12.63;100583.00;1676604;84;20993;-60
2023/05/13 10:39:07;;;;;;;11.88;2.65;;;;;;;36.26;12.70;100587.97;1670336;84;21580;-58
2023/05/13 10:42:08;;;;;;;3.67;1.40;;;;;;;36.43;12.97;100591.52;1674525;84;21872;-59
2023/05/13 10:44:35;;;;;;;8.55;2.35;;;;;;;36.92;13.13;100576.24;1667859;84;21017;-58
2023/05/13 10:47:02;;;;;;;13.25;2.00;;;;;;;37.05;12.66;100575.28;1672787;84;21024;-60
2023/05/13 10:49:35;;;;;;;6.08;2.00;;;;;;;36.72;12.93;100571.83;1680129;84;21068;-59
2023/05/13 10:52:07;;;;;;;9.33;1.60;;;;;;;35.84;12.65;100579.97;1676764;84;20949;-59
2023/05/13 10:54:39;;;;;;;4.35;1.70;;;;;;;34.95;12.66;100585.06;1674072;84;21086;-59
2023/05/13 10:57:06;;;;;;;7.97;1.98;;;;;;;34.67;12.91;100569.53;1647934;84;21586;-59
2023/05/13 10:59:34;;;;;;;8.28;1.62;;;;;;;35.32;12.90;100560.98;1642742;86;21007;-60
2023/05/13 11:02:04;;;;;;;3.60;1.30;;;;;;;35.44;12.63;100586.10;1645255;86;21022;-59
2023/05/13 11:04:30;;;;;;;5.58;1.50;;;;;;;35.01;12.68;100560.81;1643357;86;21613;-59
2023/05/13 11:07:00;;;;;;;5.37;1.40;;;;;;;33.92;13.12;100546.63;1643750;86;21007;-59
2023/05/13 11:09:29;;;;;;;5.47;1.20;;;;;;;33.85;12.72;100567.44;1641849;86;21046;-59
2023/05/13 11:12:02;;;;;;;2.60;1.42;;;;;;;33.51;12.62;100574.59;1647985;86;21514;-59
2023/05/13 11:14:31;;;;;;;4.53;1.60;;;;;;;33.08;12.77;100580.21;1649493;86;21083;-58
2023/05/13 11:17:05;;;;;;;3.85;1.47;;;;;;;32.35;12.96;100569.28;1641528;86;21107;-58
2023/05/13 11:19:37;;;;;;;5.37;1.50;;;;;;;31.87;12.94;100566.64;1644281;86;20984;-58
2023/05/13 11:22:15;;;;;;;4.15;1.57;;;;;;;31.17;13.24;100571.21;1640237;85;21046;-60
2023/05/13 11:24:44;;;;;;;8.70;2.10;;;;;;;31.43;13.47;100570.27;1644174;86;21582;-62
2023/05/13 11:27:19;;;;;;;5.15;1.50;;;;;;;31.73;13.65;100572.06;1643440;86;21070;-61